createdAt,value
2022-08-23T00:02:30.313Z,92.56
2022-08-23T00:05:08.661Z,92.73
2022-08-23T00:07:41.622Z,92.67
2022-08-23T00:10:15.829Z,92.74
2022-08-23T00:12:47.627Z,92.38
2022-08-23T00:15:20.263Z,92.45
2022-08-23T00:17:50.346Z,92.07
2022-08-23T00:20:21.613Z,92.20
2022-08-23T00:22:51.783Z,92.17
2022-08-23T00:25:22.155Z,92.01
2022-08-23T00:27:53.980Z,92.31
2022-08-23T00:30:24.241Z,92.25
2022-08-23T00:32:56.949Z,92.79
2022-08-23T00:35:28.955Z,92.88
2022-08-23T00:38:31.776Z,93.10
2022-08-23T00:40:53.404Z,93.24
2022-08-23T00:43:55.283Z,93.15
2022-08-23T00:47:03.231Z,92.93
2022-08-23T00:49:35.538Z,93.12
2022-08-23T00:52:14.863Z,93.23
2022-08-23T00:54:46.268Z,93.47
2022-08-23T00:57:20.425Z,93.59
2022-08-23T00:59:50.577Z,93.64
2022-08-23T01:02:20.080Z,92.58
2022-08-23T01:04:57.941Z,93.19
2022-08-23T01:07:44.833Z,93.30
2022-08-23T01:10:48.490Z,93.08
2022-08-23T01:13:56.462Z,93.07
2022-08-23T01:16:49.131Z,93.20
2022-08-23T01:19:48.959Z,93.56
2022-08-23T01:22:29.791Z,93.67
2022-08-23T01:25:06.064Z,93.88
2022-08-23T01:27:42.152Z,94.06
2022-08-23T01:30:19.109Z,94.18
2022-08-23T01:33:00.116Z,94.45
2022-08-23T01:35:40.121Z,94.75
2022-08-23T01:38:12.284Z,94.99
2022-08-23T01:40:44.394Z,95.10
2022-08-23T01:43:15.642Z,95.54
2022-08-23T01:45:45.955Z,95.72
2022-08-23T01:48:18.210Z,95.88
2022-08-23T01:50:49.234Z,96.00
2022-08-23T01:53:19.401Z,96.07
2022-08-23T01:55:52.327Z,96.18
2022-08-23T01:58:23.532Z,96.41
2022-08-23T02:00:53.858Z,96.54
2022-08-23T02:03:23.906Z,96.73
2022-08-23T02:05:53.780Z,96.92
2022-08-23T02:08:41.743Z,97.10
2022-08-23T02:11:12.799Z,96.04
2022-08-23T02:13:43.608Z,97.11
2022-08-23T02:16:15.344Z,97.43
2022-08-23T02:18:46.957Z,97.76
2022-08-23T02:21:17.451Z,97.72
2022-08-23T02:23:48.557Z,97.76
2022-08-23T02:26:19.258Z,97.81
2022-08-23T02:28:54.687Z,98.10
2022-08-23T02:31:27.574Z,97.83
2022-08-23T02:33:58.322Z,97.91
2022-08-23T02:36:31.201Z,98.61
2022-08-23T02:39:01.558Z,98.88
2022-08-23T02:41:32.620Z,98.59
2022-08-23T02:44:02.669Z,98.50
2022-08-23T02:46:32.834Z,98.42
2022-08-23T02:49:02.873Z,98.47
2022-08-23T02:51:32.723Z,98.33
2022-08-23T02:54:02.471Z,97.84
2022-08-23T02:56:33.090Z,98.65
2022-08-23T02:59:03.151Z,99.05
2022-08-23T03:01:34.164Z,98.02
2022-08-23T03:04:16.360Z,98.77
2022-08-23T03:06:46.621Z,99.02
2022-08-23T03:09:15.938Z,98.30
2022-08-23T03:11:48.834Z,98.80
2022-08-23T03:14:20.313Z,98.69
2022-08-23T03:16:51.131Z,98.89
2022-08-23T03:19:21.374Z,98.93
2022-08-23T03:21:51.156Z,98.81
2022-08-23T03:24:22.451Z,98.79
2022-08-23T03:26:53.464Z,98.81
2022-08-23T03:29:24.119Z,98.78
2022-08-23T03:32:02.593Z,99.01
2022-08-23T03:34:37.216Z,99.32
2022-08-23T03:37:09.701Z,99.32
2022-08-23T03:39:40.009Z,99.38
2022-08-23T03:42:10.463Z,99.43
2022-08-23T03:44:40.415Z,99.43
2022-08-23T03:47:10.389Z,99.38
2022-08-23T03:49:43.249Z,99.31
2022-08-23T03:52:13.485Z,99.35
2022-08-23T03:54:43.297Z,99.42
2022-08-23T03:57:14.732Z,99.46
2022-08-23T03:59:45.596Z,99.44
2022-08-23T04:02:16.108Z,99.67
2022-08-23T04:04:46.684Z,99.77
2022-08-23T04:07:39.895Z,99.54
2022-08-23T04:10:16.462Z,99.48
2022-08-23T04:12:51.085Z,99.43
2022-08-23T04:15:21.561Z,99.43
2022-08-23T04:17:51.531Z,99.71
2022-08-23T04:20:21.394Z,99.88
2022-08-23T04:22:57.600Z,99.97
2022-08-23T04:25:34.382Z,99.99
2022-08-23T04:28:07.461Z,99.99
2022-08-23T04:30:37.452Z,99.99
2022-08-23T04:33:11.347Z,99.99
2022-08-23T04:35:43.580Z,99.86
2022-08-23T04:38:24.016Z,99.90
2022-08-23T04:41:16.272Z,99.81
2022-08-23T04:43:48.680Z,99.86
2022-08-23T04:46:19.474Z,99.71
2022-08-23T04:48:50.093Z,99.68
2022-08-23T04:51:23.336Z,99.90
2022-08-23T04:53:53.701Z,99.94
2022-08-23T04:56:55.273Z,99.99
2022-08-23T04:59:25.881Z,99.99
2022-08-23T05:01:55.796Z,99.99
2022-08-23T05:04:25.177Z,99.86
2022-08-23T05:06:54.865Z,99.99
2022-08-23T05:09:26.215Z,99.99
2022-08-23T05:11:57.522Z,99.99
2022-08-23T05:14:28.097Z,99.99
2022-08-23T05:16:58.897Z,99.99
2022-08-23T05:19:29.649Z,99.99
2022-08-23T05:21:59.693Z,99.99
2022-08-23T05:24:47.930Z,99.99
2022-08-23T05:27:18.145Z,99.99
2022-08-23T05:29:48.360Z,99.86
2022-08-23T05:32:18.371Z,99.99
2022-08-23T05:34:48.628Z,99.65
2022-08-23T05:37:19.032Z,99.99
2022-08-23T05:39:49.179Z,99.99
2022-08-23T05:42:20.580Z,99.99
2022-08-23T05:44:50.752Z,99.99
2022-08-23T05:47:23.634Z,99.99
2022-08-23T05:50:04.717Z,99.99
2022-08-23T05:52:37.896Z,99.99
2022-08-23T05:55:08.914Z,99.99
2022-08-23T05:57:58.322Z,99.99
2022-08-23T06:00:37.868Z,99.99
2022-08-23T06:03:11.738Z,99.99
2022-08-23T06:05:43.440Z,99.99
2022-08-23T06:08:14.582Z,99.99
2022-08-23T06:10:45.630Z,99.99
2022-08-23T06:13:25.793Z,99.99
2022-08-23T06:15:57.037Z,99.99
2022-08-23T06:18:29.704Z,99.99
2022-08-23T06:21:19.539Z,99.99
2022-08-23T06:23:52.102Z,99.99
2022-08-23T06:26:29.474Z,99.99
2022-08-23T06:29:03.509Z,99.99
2022-08-23T06:31:52.379Z,99.99
2022-08-23T06:34:39.456Z,99.99
2022-08-23T06:37:16.308Z,99.99
2022-08-23T06:40:05.751Z,99.99
2022-08-23T06:42:49.492Z,99.99
2022-08-23T06:45:33.975Z,99.99
2022-08-23T06:48:07.006Z,99.99
2022-08-23T06:50:37.091Z,99.99
2022-08-23T06:53:25.011Z,99.99
2022-08-23T06:56:22.141Z,99.99
2022-08-23T06:59:07.582Z,99.99
2022-08-23T07:02:07.870Z,99.99
2022-08-23T07:05:07.519Z,99.99
2022-08-23T07:07:44.844Z,99.99
2022-08-23T07:10:17.023Z,99.99
2022-08-23T07:12:47.308Z,99.99
2022-08-23T07:15:18.300Z,99.99
2022-08-23T07:17:48.841Z,99.99
2022-08-23T07:20:18.113Z,99.99
2022-08-23T07:22:48.188Z,99.99
2022-08-23T07:25:19.336Z,99.99
2022-08-23T07:27:52.689Z,99.99
2022-08-23T07:30:23.104Z,99.99
2022-08-23T07:32:54.796Z,99.99
2022-08-23T07:35:26.441Z,99.99
2022-08-23T07:37:59.357Z,99.99
2022-08-23T07:40:38.790Z,99.99
2022-08-23T07:43:09.557Z,99.99
2022-08-23T07:45:41.825Z,99.99
2022-08-23T07:48:14.347Z,99.99
2022-08-23T07:51:09.207Z,99.99
2022-08-23T07:53:45.785Z,99.99
2022-08-23T07:56:20.407Z,99.99
2022-08-23T07:59:17.494Z,99.99
2022-08-23T08:02:05.739Z,99.99
2022-08-23T08:04:37.137Z,99.99
2022-08-23T08:07:22.835Z,99.99
2022-08-23T08:10:01.142Z,99.99
2022-08-23T08:12:33.666Z,99.99
2022-08-23T08:15:12.860Z,99.99
2022-08-23T08:17:43.468Z,99.99
2022-08-23T08:20:21.248Z,99.99
2022-08-23T08:23:11.277Z,99.99
2022-08-23T08:26:03.717Z,99.99
2022-08-23T08:28:35.846Z,99.99
2022-08-23T08:31:06.950Z,99.99
2022-08-23T08:33:38.661Z,99.99
2022-08-23T08:36:10.437Z,99.99
2022-08-23T08:38:48.453Z,99.99
2022-08-23T08:41:41.894Z,99.99
2022-08-23T08:44:47.253Z,99.99
2022-08-23T08:47:47.259Z,99.99
2022-08-23T08:50:38.793Z,99.99
2022-08-23T08:53:40.860Z,99.99
2022-08-23T08:56:32.275Z,99.99
2022-08-23T08:59:27.351Z,99.99
2022-08-23T09:02:00.739Z,99.99
2022-08-23T09:04:38.709Z,99.99
2022-08-23T09:07:21.101Z,99.99
2022-08-23T09:10:21.944Z,99.99
2022-08-23T09:14:08.254Z,99.99
2022-08-23T09:16:59.194Z,99.99
2022-08-23T09:19:39.496Z,99.99
2022-08-23T09:22:29.002Z,99.99
2022-08-23T09:25:00.464Z,99.99
2022-08-23T09:27:42.729Z,99.99
2022-08-23T09:30:16.815Z,99.99
2022-08-23T09:32:52.819Z,99.99
2022-08-23T09:35:26.881Z,99.99
2022-08-23T09:38:22.279Z,99.99
2022-08-23T09:40:59.688Z,99.99
2022-08-23T09:43:32.738Z,99.99
2022-08-23T09:46:03.741Z,99.99
2022-08-23T09:48:43.590Z,99.99
2022-08-23T09:51:27.363Z,99.99
2022-08-23T09:54:09.551Z,99.99
2022-08-23T09:56:46.316Z,99.99
2022-08-23T09:59:28.617Z,99.99
2022-08-23T10:02:05.286Z,99.99
2022-08-23T10:04:48.273Z,99.99
2022-08-23T10:07:43.024Z,99.99
2022-08-23T10:10:51.135Z,99.99
2022-08-23T10:13:29.896Z,99.99
2022-08-23T10:16:27.001Z,99.99
2022-08-23T10:19:31.004Z,99.99
2022-08-23T10:22:14.894Z,99.99
2022-08-23T10:24:59.779Z,99.99
2022-08-23T10:28:11.844Z,99.99
2022-08-23T10:31:12.647Z,99.99
2022-08-23T10:34:04.089Z,99.99
2022-08-23T10:36:44.099Z,99.99
2022-08-23T10:39:31.168Z,99.99
2022-08-23T10:42:05.882Z,99.87
2022-08-23T10:44:39.387Z,99.99
2022-08-23T10:48:03.932Z,99.71
2022-08-23T10:50:57.365Z,99.64
2022-08-23T10:54:01.352Z,99.66
2022-08-23T10:56:31.947Z,99.33
2022-08-23T10:59:09.134Z,99.71
2022-08-23T11:02:12.399Z,99.40
2022-08-23T11:04:48.621Z,99.91
2022-08-23T11:07:42.402Z,99.53
2022-08-23T11:10:29.255Z,99.06
2022-08-23T11:13:20.612Z,98.76
2022-08-23T11:16:02.351Z,98.19
2022-08-23T11:18:47.526Z,98.00
2022-08-23T11:21:35.223Z,98.07
2022-08-23T11:24:08.221Z,97.52
2022-08-23T11:26:42.495Z,97.54
2022-08-23T11:29:12.622Z,97.33
2022-08-23T11:32:00.493Z,96.59
2022-08-23T11:35:00.971Z,96.87
2022-08-23T11:37:50.732Z,95.73
2022-08-23T11:40:57.038Z,96.18
2022-08-23T11:43:43.333Z,96.01
2022-08-23T11:46:28.567Z,96.32
2022-08-23T11:49:34.321Z,95.87
2022-08-23T11:52:11.333Z,94.18
2022-08-23T11:55:22.712Z,94.30
2022-08-23T11:58:09.477Z,93.45
2022-08-23T12:01:04.224Z,92.84
2022-08-23T12:03:38.134Z,79.76
2022-08-23T12:06:21.942Z,72.42
2022-08-23T12:09:03.152Z,74.47
2022-08-23T12:11:58.825Z,71.60
2022-08-23T12:14:33.965Z,67.68
2022-08-23T12:17:19.455Z,62.76
2022-08-23T12:20:02.502Z,63.92
2022-08-23T12:22:56.249Z,60.88
2022-08-23T12:25:26.735Z,64.03
2022-08-23T12:28:34.622Z,62.32
2022-08-23T12:31:18.808Z,61.72
2022-08-23T12:33:57.652Z,63.40
2022-08-23T12:37:03.808Z,66.30
2022-08-23T12:39:41.393Z,66.17
2022-08-23T12:42:28.697Z,64.51
2022-08-23T12:45:09.396Z,64.13
2022-08-23T12:47:43.359Z,63.08
2022-08-23T12:50:32.527Z,63.34
2022-08-23T12:53:06.984Z,64.00
2022-08-23T12:55:42.574Z,66.85
2022-08-23T12:58:14.909Z,68.25
2022-08-23T13:00:55.125Z,66.51
2022-08-23T13:03:45.712Z,67.22
2022-08-23T13:06:23.075Z,63.36
2022-08-23T13:08:59.765Z,66.38
2022-08-23T13:11:33.940Z,61.17
2022-08-23T13:14:31.278Z,64.26
2022-08-23T13:17:20.663Z,65.42
2022-08-23T13:19:54.919Z,65.15
2022-08-23T13:22:27.724Z,60.88
2022-08-23T13:25:28.613Z,61.48
2022-08-23T13:28:10.038Z,63.65
2022-08-23T13:30:40.315Z,63.38
2022-08-23T13:33:10.708Z,60.05
2022-08-23T13:35:45.605Z,62.52
2022-08-23T13:38:22.205Z,63.29
2022-08-23T13:41:09.918Z,65.67
2022-08-23T13:43:39.577Z,72.62
2022-08-23T13:46:22.854Z,65.12
2022-08-23T13:49:04.389Z,62.88
2022-08-23T13:51:36.952Z,60.91
2022-08-23T13:54:12.716Z,62.16
2022-08-23T13:56:45.667Z,63.51
2022-08-23T13:59:32.066Z,64.85
2022-08-23T14:02:04.978Z,61.96
2022-08-23T14:04:35.533Z,60.58
2022-08-23T14:07:06.081Z,61.27
2022-08-23T14:09:36.652Z,61.74
2022-08-23T14:12:10.359Z,60.16
2022-08-23T14:14:44.794Z,64.68
2022-08-23T14:17:17.140Z,52.54
2022-08-23T14:22:41.619Z,58.55
2022-08-23T14:25:13.556Z,55.12
2022-08-23T14:27:45.931Z,54.33
2022-08-23T14:30:34.444Z,58.14
2022-08-23T14:33:06.395Z,54.57
2022-08-23T14:35:36.490Z,54.70
2022-08-23T14:38:06.213Z,53.61
2022-08-23T14:40:37.405Z,53.46
2022-08-23T14:43:07.500Z,56.11
2022-08-23T14:45:37.505Z,56.23
2022-08-23T14:48:08.165Z,52.01
2022-08-23T14:50:38.207Z,51.90
2022-08-23T14:53:09.035Z,50.83
2022-08-23T14:55:39.018Z,49.07
2022-08-23T14:58:09.264Z,52.18
2022-08-23T15:00:40.045Z,54.79
2022-08-23T15:03:12.283Z,52.18
2022-08-23T15:05:42.720Z,52.33
2022-08-23T15:08:14.133Z,50.13
2022-08-23T15:12:55.342Z,48.40
2022-08-23T15:13:41.604Z,49.59
2022-08-23T15:16:26.274Z,51.04
2022-08-23T15:18:57.775Z,48.26
2022-08-23T15:21:28.800Z,50.01
2022-08-23T15:23:59.106Z,49.93
2022-08-23T15:26:32.504Z,47.46
2022-08-23T15:29:02.784Z,48.91
2022-08-23T15:31:32.708Z,47.84
2022-08-23T15:34:02.577Z,48.57
2022-08-23T15:36:33.676Z,46.65
2022-08-23T15:39:03.677Z,47.28
2022-08-23T15:41:33.553Z,44.18
2022-08-23T15:44:03.523Z,45.70
2022-08-23T15:46:33.391Z,43.65
2022-08-23T15:49:12.099Z,48.95
2022-08-23T15:51:42.978Z,41.86
2022-08-23T15:54:13.199Z,46.76
2022-08-23T15:56:50.828Z,41.06
2022-08-23T15:59:22.824Z,40.35
2022-08-23T16:01:52.766Z,43.84
2022-08-23T16:04:22.652Z,45.67
2022-08-23T16:06:52.659Z,39.38
2022-08-23T16:09:25.640Z,49.47
2022-08-23T16:12:00.072Z,43.25
2022-08-23T16:14:32.233Z,43.56
2022-08-23T16:17:02.900Z,45.80
2022-08-23T16:19:32.876Z,45.84
2022-08-23T16:22:02.912Z,46.95
2022-08-23T16:24:34.221Z,46.60
2022-08-23T16:27:05.830Z,46.80
2022-08-23T16:29:37.351Z,46.07
2022-08-23T16:32:09.526Z,46.69
2022-08-23T16:34:39.477Z,43.09
2022-08-23T16:37:10.819Z,42.30
2022-08-23T16:39:41.368Z,43.13
2022-08-23T16:42:11.203Z,41.93
2022-08-23T16:44:40.982Z,40.06
2022-08-23T16:47:12.358Z,37.96
2022-08-23T16:49:44.374Z,38.02
2022-08-23T16:52:15.222Z,39.27
2022-08-23T16:54:45.300Z,41.86
2022-08-23T16:57:18.044Z,41.54
2022-08-23T16:59:48.274Z,38.16
2022-08-23T17:02:30.895Z,38.91
2022-08-23T17:05:01.384Z,41.68
2022-08-23T17:07:32.357Z,41.17
2022-08-23T17:10:02.108Z,37.23
2022-08-23T17:12:33.352Z,37.03
2022-08-23T17:15:03.367Z,40.10
2022-08-23T17:17:33.707Z,40.60
2022-08-23T17:20:04.237Z,38.24
2022-08-23T17:22:36.993Z,38.45
2022-08-23T17:25:08.078Z,36.22
2022-08-23T17:27:43.140Z,37.93
2022-08-23T17:30:18.604Z,35.20
2022-08-23T17:32:50.052Z,36.00
2022-08-23T17:35:25.133Z,35.03
2022-08-23T17:37:56.099Z,36.29
2022-08-23T17:40:33.346Z,34.50
2022-08-23T17:43:04.548Z,34.63
2022-08-23T17:45:42.778Z,32.02
2022-08-23T17:48:13.595Z,33.77
2022-08-23T17:50:45.359Z,30.96
2022-08-23T17:53:19.575Z,32.19
2022-08-23T17:55:50.554Z,33.15
2022-08-23T17:58:21.081Z,37.16
2022-08-23T18:00:52.795Z,37.67
2022-08-23T18:03:24.025Z,35.20
2022-08-23T18:05:55.804Z,35.06
2022-08-23T18:08:26.205Z,34.05
2022-08-23T18:10:55.954Z,37.70
2022-08-23T18:13:26.965Z,35.57
2022-08-23T18:15:57.398Z,37.43
2022-08-23T18:18:27.297Z,39.91
2022-08-23T18:20:57.269Z,36.27
2022-08-23T18:23:27.404Z,41.74
2022-08-23T18:25:57.147Z,38.27
2022-08-23T18:28:26.980Z,39.23
2022-08-23T18:30:57.356Z,42.89
2022-08-23T18:33:31.487Z,37.37
2022-08-23T18:36:02.496Z,37.35
2022-08-23T18:38:32.210Z,36.25
2022-08-23T18:41:02.232Z,40.16
2022-08-23T18:43:37.256Z,43.62
2022-08-23T18:46:08.960Z,45.17
2022-08-23T18:48:39.920Z,45.64
2022-08-23T18:51:16.313Z,41.25
2022-08-23T18:53:48.416Z,37.51
2022-08-23T18:56:18.438Z,35.97
2022-08-23T18:58:48.975Z,36.05
2022-08-23T19:01:30.878Z,37.63
2022-08-23T19:04:03.375Z,35.81
2022-08-23T19:06:34.054Z,36.87
2022-08-23T19:09:04.992Z,36.01
2022-08-23T19:11:35.909Z,36.43
2022-08-23T19:14:07.624Z,38.58
2022-08-23T19:16:38.427Z,38.29
2022-08-23T19:19:08.470Z,46.79
2022-08-23T19:21:38.221Z,53.90
2022-08-23T19:24:08.205Z,55.67
2022-08-23T19:26:39.529Z,58.38
2022-08-23T19:29:11.112Z,58.92
2022-08-23T19:31:47.696Z,59.28
2022-08-23T19:34:20.918Z,60.25
2022-08-23T19:37:00.344Z,60.58
2022-08-23T19:39:32.164Z,61.74
2022-08-23T19:42:02.771Z,62.34
2022-08-23T19:44:36.798Z,63.95
2022-08-23T19:47:08.233Z,64.87
2022-08-23T19:49:47.847Z,65.35
2022-08-23T19:52:17.686Z,65.94
2022-08-23T19:54:47.503Z,67.14
2022-08-23T19:57:17.401Z,66.94
2022-08-23T19:59:47.180Z,68.79
2022-08-23T20:02:18.158Z,69.56
2022-08-23T20:04:48.235Z,72.70
2022-08-23T20:07:18.638Z,70.22
2022-08-23T20:09:48.375Z,71.03
2022-08-23T20:12:18.455Z,72.95
2022-08-23T20:14:50.758Z,73.03
2022-08-23T20:17:20.892Z,72.57
2022-08-23T20:19:51.008Z,72.03
2022-08-23T20:22:39.345Z,71.73
2022-08-23T20:25:10.220Z,70.24
2022-08-23T20:27:40.286Z,70.23
2022-08-23T20:30:11.660Z,70.92
2022-08-23T20:32:42.138Z,71.04
2022-08-23T20:35:12.754Z,72.48
2022-08-23T20:37:42.856Z,71.48
2022-08-23T20:40:13.025Z,72.51
2022-08-23T20:42:42.822Z,72.20
2022-08-23T20:45:12.775Z,72.74
2022-08-23T20:47:42.650Z,74.31
2022-08-23T20:50:12.496Z,74.80
2022-08-23T20:52:42.403Z,75.09
2022-08-23T20:55:12.949Z,76.51
2022-08-23T20:57:43.966Z,76.08
2022-08-23T21:00:14.516Z,76.99
2022-08-23T21:02:44.292Z,76.26
2022-08-23T21:05:14.101Z,77.52
2022-08-23T21:07:44.134Z,76.42
2022-08-23T21:10:14.403Z,77.67
2022-08-23T21:12:44.129Z,76.98
2022-08-23T21:15:14.122Z,78.11
2022-08-23T21:17:47.708Z,78.07
2022-08-23T21:20:18.171Z,79.35
2022-08-23T21:22:48.167Z,79.91
2022-08-23T21:25:18.248Z,80.50
2022-08-23T21:27:47.994Z,80.96
2022-08-23T21:30:17.954Z,81.83
2022-08-23T21:32:48.663Z,83.40
2022-08-23T21:35:18.493Z,83.42
2022-08-23T21:37:48.297Z,84.04
2022-08-23T21:40:18.138Z,84.26
2022-08-23T21:42:51.045Z,85.48
2022-08-23T21:45:21.438Z,86.20
2022-08-23T21:47:52.392Z,85.49
2022-08-23T21:50:24.478Z,85.36
2022-08-23T21:52:56.729Z,85.29
2022-08-23T21:55:36.149Z,85.60
2022-08-23T21:58:08.231Z,85.94
2022-08-23T22:00:38.500Z,86.42
2022-08-23T22:03:09.312Z,87.03
2022-08-23T22:05:43.495Z,87.30
2022-08-23T22:08:14.842Z,87.50
2022-08-23T22:10:52.267Z,87.30
2022-08-23T22:13:29.936Z,87.60
2022-08-23T22:16:01.511Z,87.95
2022-08-23T22:18:32.725Z,88.67
2022-08-23T22:21:03.614Z,88.85
2022-08-23T22:23:34.137Z,89.19
2022-08-23T22:26:07.126Z,89.94
2022-08-23T22:28:37.987Z,90.10
2022-08-23T22:31:09.573Z,90.73
2022-08-23T22:33:40.574Z,91.19
2022-08-23T22:36:14.912Z,91.62
2022-08-23T22:38:45.921Z,91.86
2022-08-23T22:41:29.378Z,92.00
2022-08-23T22:44:01.579Z,92.01
2022-08-23T22:46:34.172Z,92.53
2022-08-23T22:49:04.579Z,92.74
2022-08-23T22:51:37.511Z,92.86
2022-08-23T22:54:11.865Z,93.04
2022-08-23T22:56:45.613Z,93.20
2022-08-23T22:59:17.087Z,93.42
2022-08-23T23:01:55.116Z,93.56
2022-08-23T23:04:30.510Z,93.84
2022-08-23T23:07:00.760Z,94.25
2022-08-23T23:09:31.037Z,94.29
2022-08-23T23:12:01.345Z,94.45
2022-08-23T23:14:31.123Z,94.13
2022-08-23T23:17:01.187Z,94.54
2022-08-23T23:19:49.479Z,94.62
2022-08-23T23:22:19.384Z,94.97
2022-08-23T23:24:49.107Z,95.49
2022-08-23T23:27:19.799Z,95.57
2022-08-23T23:29:49.569Z,95.37
2022-08-23T23:32:20.218Z,94.90
2022-08-23T23:34:50.073Z,95.15
2022-08-23T23:37:19.767Z,95.25
2022-08-23T23:39:50.748Z,95.05
2022-08-23T23:42:20.550Z,95.07
2022-08-23T23:44:50.383Z,94.87
2022-08-23T23:47:20.167Z,94.94
2022-08-23T23:49:51.858Z,95.35
2022-08-23T23:52:21.618Z,95.40
2022-08-23T23:54:51.372Z,95.09
2022-08-23T23:57:21.331Z,95.16
2022-08-23T23:59:51.206Z,95.31
